Time;durP1;ratioP1;P1;durP2;ratioP2;P2;SDS_P1;SDS_P2;PMS_P1;PMS_P2;Temp;Humidity;BMP_temperature;BMP_pressure;BME280_temperature;BME280_humidity;BME280_pressure;Samples;Min_cycle;Max_cycle;Signal;HPM_P1;HPM_P2
2021/07/06 00:00:58;;;;;;;2.55;2.10;;;;;;;25.22;54.42;98871.34;1676309;83;21165;-53
2021/07/06 00:03:26;;;;;;;2.50;2.30;;;;;;;25.24;54.38;98864.45;1659455;83;21147;-52
2021/07/06 00:05:53;;;;;;;7.25;2.60;;;;;;;25.22;54.35;98870.83;1682686;83;21554;-48
2021/07/06 00:08:20;;;;;;;2.98;2.67;;;;;;;25.20;54.34;98863.91;1682296;83;21049;-52
2021/07/06 00:10:47;;;;;;;9.00;2.65;;;;;;;25.19;54.26;98868.97;1684361;83;21080;-53
2021/07/06 00:13:14;;;;;;;7.45;2.67;;;;;;;25.11;54.34;98871.11;1686553;83;21145;-53
2021/07/06 00:15:40;;;;;;;5.80;2.70;;;;;;;25.03;54.53;98880.02;1688464;83;21085;-55
2021/07/06 00:18:07;;;;;;;3.77;2.20;;;;;;;25.03;54.53;98875.98;1693930;83;21597;-48
2021/07/06 00:20:35;;;;;;;4.10;2.37;;;;;;;25.03;54.53;98877.33;1703901;83;21050;-50
2021/07/06 00:23:03;;;;;;;6.47;3.20;;;;;;;25.01;54.59;98876.62;1687664;83;21087;-54
2021/07/06 00:25:31;;;;;;;5.00;2.60;;;;;;;25.01;54.55;98880.66;1668829;83;22313;-48
2021/07/06 00:27:58;;;;;;;4.30;2.50;;;;;;;25.01;54.60;98874.44;1661869;83;21009;-54
2021/07/06 00:30:25;;;;;;;3.00;2.60;;;;;;;25.02;54.56;98880.17;1667024;83;21053;-52
2021/07/06 00:32:52;;;;;;;4.28;2.87;;;;;;;24.99;54.57;98879.98;1683945;83;21099;-53
2021/07/06 00:35:19;;;;;;;3.27;2.33;;;;;;;24.99;54.62;98881.84;1661031;83;20949;-54
2021/07/06 00:37:46;;;;;;;7.95;2.95;;;;;;;25.03;54.54;98890.78;1657651;83;21151;-51
2021/07/06 00:40:14;;;;;;;6.45;2.65;;;;;;;25.08;54.43;98890.27;1680998;83;21037;-54
2021/07/06 00:42:43;;;;;;;5.62;2.40;;;;;;;25.15;54.24;98887.30;1678515;85;21096;-54
2021/07/06 00:45:12;;;;;;;3.12;2.80;;;;;;;25.23;54.06;98894.55;1673989;83;21079;-54
2021/07/06 00:47:40;;;;;;;5.22;2.77;;;;;;;25.27;53.83;98895.95;1637154;83;21127;-54
2021/07/06 00:50:15;;;;;;;3.27;2.67;;;;;;;25.27;53.80;98897.78;1676808;83;21975;-49
2021/07/06 00:52:41;;;;;;;6.75;2.60;;;;;;;25.32;53.70;98895.48;1681486;83;21032;-53
2021/07/06 00:55:09;;;;;;;4.83;2.62;;;;;;;25.36;53.58;98895.47;1680052;83;21079;-54
2021/07/06 00:57:37;;;;;;;2.83;2.52;;;;;;;25.39;53.46;98901.89;1689151;83;21044;-49
2021/07/06 01:00:08;;;;;;;2.52;2.33;;;;;;;25.37;53.42;98902.05;1687749;83;21021;-53
2021/07/06 01:02:35;;;;;;;2.98;2.30;;;;;;;25.36;53.47;98903.05;1677075;83;21123;-48
2021/07/06 01:05:04;;;;;;;2.45;2.30;;;;;;;25.36;53.47;98905.73;1661891;83;21017;-51
2021/07/06 01:07:30;;;;;;;3.50;2.20;;;;;;;25.37;53.35;98903.91;1661859;83;21017;-51
2021/07/06 01:09:56;;;;;;;2.58;2.37;;;;;;;25.36;53.41;98908.42;1673824;83;21037;-55
2021/07/06 01:12:23;;;;;;;4.67;2.40;;;;;;;25.38;53.35;98905.58;1672773;83;21626;-54
2021/07/06 01:14:49;;;;;;;2.98;2.60;;;;;;;25.41;53.27;98907.95;1650631;85;21061;-47
2021/07/06 01:17:27;;;;;;;2.85;2.22;;;;;;;25.41;53.19;98903.91;1677808;83;21058;-50
2021/07/06 01:19:59;;;;;;;5.65;2.58;;;;;;;25.42;53.20;98904.73;1674891;83;21002;-48
2021/07/06 01:22:31;;;;;;;4.53;2.58;;;;;;;25.43;53.13;98901.88;1662557;83;21108;-55
2021/07/06 01:24:59;;;;;;;5.17;2.65;;;;;;;25.40;53.18;98903.55;1681442;83;21535;-52
2021/07/06 01:27:25;;;;;;;3.02;2.35;;;;;;;25.43;53.17;98912.66;1695255;83;21448;-53
2021/07/06 01:29:53;;;;;;;4.10;2.45;;;;;;;25.46;53.04;98908.30;1701257;83;21499;-55
2021/07/06 01:32:20;;;;;;;2.80;2.60;;;;;;;25.48;53.00;98914.36;1676577;83;21080;-54
2021/07/06 01:34:46;;;;;;;4.25;2.60;;;;;;;25.47;52.97;98915.38;1691761;83;21050;-54
2021/07/06 01:37:20;;;;;;;5.30;2.50;;;;;;;25.50;52.92;98923.63;1628479;85;21111;-55
2021/07/06 01:39:47;;;;;;;4.00;2.40;;;;;;;25.50;52.88;98928.53;1633042;85;21214;-54
2021/07/06 01:42:18;;;;;;;2.95;2.30;;;;;;;25.53;52.80;98925.48;1666555;83;21072;-53
2021/07/06 01:44:45;;;;;;;2.67;2.47;;;;;;;25.56;52.76;98933.75;1635311;85;21097;-54
2021/07/06 01:47:12;;;;;;;3.60;2.70;;;;;;;25.60;52.68;98937.80;1636625;85;21584;-55
2021/07/06 01:49:39;;;;;;;4.72;2.60;;;;;;;25.64;52.51;98932.44;1669911;83;21145;-54
2021/07/06 01:52:07;;;;;;;5.10;2.75;;;;;;;25.67;52.40;98937.50;1669711;83;21127;-47
2021/07/06 01:54:33;;;;;;;3.45;2.70;;;;;;;25.71;52.32;98932.63;1671431;83;21381;-54
2021/07/06 01:57:00;;;;;;;2.60;2.40;;;;;;;25.74;52.22;98937.69;1662488;83;21065;-56
2021/07/06 01:59:26;;;;;;;4.42;2.50;;;;;;;25.76;52.14;98939.70;1680871;83;21160;-55
2021/07/06 02:01:54;;;;;;;2.35;2.17;;;;;;;25.75;52.09;98938.84;1641652;85;21095;-54
2021/07/06 02:04:20;;;;;;;3.87;2.37;;;;;;;25.73;52.11;98943.55;1666314;83;21144;-53
2021/07/06 02:06:47;;;;;;;4.33;2.40;;;;;;;25.71;52.08;98937.50;1673273;83;21144;-55
2021/07/06 02:09:14;;;;;;;4.87;2.50;;;;;;;25.71;52.11;98943.40;1637505;84;21628;-56
2021/07/06 02:11:43;;;;;;;5.55;2.47;;;;;;;25.73;52.08;98946.77;1696394;83;21088;-50
2021/07/06 02:14:10;;;;;;;4.10;2.35;;;;;;;25.74;52.04;98949.81;1664824;83;21084;-54
2021/07/06 02:16:40;;;;;;;7.65;2.92;;;;;;;25.77;51.93;98952.15;1668430;83;21527;-50
2021/07/06 02:19:07;;;;;;;4.85;2.33;;;;;;;25.76;51.89;98955.88;1672433;83;21096;-52
2021/07/06 02:21:33;;;;;;;2.85;2.65;;;;;;;25.67;52.00;98950.97;1659533;83;21055;-50
2021/07/06 02:23:59;;;;;;;7.33;2.58;;;;;;;25.61;52.23;98953.47;1688370;83;21042;-55
2021/07/06 02:26:26;;;;;;;4.25;3.10;;;;;;;25.63;52.25;98954.14;1682798;83;21098;-56
2021/07/06 02:28:52;;;;;;;3.42;2.55;;;;;;;25.70;52.13;98957.86;1686525;83;21508;-55
2021/07/06 02:31:19;;;;;;;2.52;2.33;;;;;;;25.80;51.98;98959.08;1677566;83;21051;-56
2021/07/06 02:33:46;;;;;;;3.47;2.10;;;;;;;25.88;51.71;98957.23;1692616;83;21084;-56
2021/07/06 02:36:12;;;;;;;5.05;2.70;;;;;;;25.94;51.63;98959.28;1659978;83;21025;-52
2021/07/06 02:38:39;;;;;;;3.52;2.40;;;;;;;26.06;51.41;98960.35;1659479;83;21574;-55
2021/07/06 02:41:05;;;;;;;5.30;2.17;;;;;;;26.19;51.09;98964.72;1659108;85;21292;-53
2021/07/06 02:43:32;;;;;;;6.62;2.35;;;;;;;26.29;50.80;98963.22;1638152;85;21067;-54
2021/07/06 02:46:00;;;;;;;4.20;2.40;;;;;;;26.39;50.64;98961.19;1664590;83;21625;-51
2021/07/06 02:48:28;;;;;;;3.22;2.70;;;;;;;26.48;50.37;98959.36;1667551;83;21472;-50
2021/07/06 02:50:54;;;;;;;2.92;2.30;;;;;;;26.58;50.12;98962.73;1661608;84;21046;-53
2021/07/06 02:53:20;;;;;;;6.75;2.33;;;;;;;26.72;49.89;98961.73;1673158;83;21040;-54
2021/07/06 02:55:48;;;;;;;3.00;2.72;;;;;;;26.85;49.57;98970.16;1666404;83;21063;-53
2021/07/06 02:58:14;;;;;;;9.20;2.50;;;;;;;26.95;49.27;98964.05;1671062;83;21062;-53
2021/07/06 03:00:41;;;;;;;3.55;2.55;;;;;;;27.10;48.99;98961.98;1681261;83;21044;-53
2021/07/06 03:03:10;;;;;;;3.22;2.52;;;;;;;27.22;48.60;98961.44;1652020;83;21033;-47
2021/07/06 03:05:38;;;;;;;7.40;2.40;;;;;;;27.27;48.45;98964.12;1673395;83;21137;-54
2021/07/06 03:08:06;;;;;;;3.60;2.45;;;;;;;27.35;48.34;98969.04;1688009;83;21008;-55
2021/07/06 03:10:37;;;;;;;4.65;2.52;;;;;;;27.53;47.98;98967.42;1687918;83;21104;-47
2021/07/06 03:13:05;;;;;;;5.47;2.50;;;;;;;27.75;47.53;98967.66;1692592;83;21053;-54
2021/07/06 03:15:31;;;;;;;4.65;2.30;;;;;;;27.97;47.08;98971.45;1696077;83;20985;-55
2021/07/06 03:18:02;;;;;;;2.87;2.30;;;;;;;28.16;46.62;98981.81;1685416;83;21186;-54
2021/07/06 03:20:28;;;;;;;2.37;2.10;;;;;;;28.31;46.18;98973.76;1671709;83;21508;-55
2021/07/06 03:22:55;;;;;;;2.95;2.37;;;;;;;28.47;45.90;98976.83;1661803;83;21538;-54
2021/07/06 03:25:25;;;;;;;6.20;2.67;;;;;;;28.66;45.47;98976.03;1686472;83;21049;-57
2021/07/06 03:27:54;;;;;;;4.92;2.50;;;;;;;28.72;45.28;98976.14;1671676;83;21037;-50
2021/07/06 03:30:24;;;;;;;4.58;2.35;;;;;;;28.84;45.24;98981.95;1672136;83;21099;-55
2021/07/06 03:32:54;;;;;;;3.12;2.20;;;;;;;28.97;44.89;98981.84;1670113;83;21053;-49
2021/07/06 03:35:21;;;;;;;5.85;2.55;;;;;;;29.09;44.73;98994.73;1671108;83;21009;-52
2021/07/06 03:37:47;;;;;;;4.80;2.50;;;;;;;29.20;44.50;98985.34;1648810;83;20997;-48
2021/07/06 03:40:14;;;;;;;2.67;2.47;;;;;;;29.26;44.38;98984.58;1670579;83;21048;-52
2021/07/06 03:42:41;;;;;;;5.22;2.62;;;;;;;29.36;44.18;98987.54;1669899;83;22100;-53
2021/07/06 03:45:09;;;;;;;3.15;2.58;;;;;;;29.38;44.17;98983.59;1669919;83;21424;-54
2021/07/06 03:47:37;;;;;;;3.17;2.40;;;;;;;29.43;44.08;98984.39;1670314;83;20985;-53
2021/07/06 03:50:05;;;;;;;5.78;2.47;;;;;;;29.45;44.03;98986.39;1651478;84;21053;-53
2021/07/06 03:52:31;;;;;;;4.25;2.40;;;;;;;29.48;43.99;98981.96;1669917;83;20989;-54
2021/07/06 03:54:58;;;;;;;6.00;2.10;;;;;;;29.50;44.00;98989.38;1671989;83;21098;-57
2021/07/06 03:57:29;;;;;;;4.05;2.42;;;;;;;29.55;43.95;98995.08;1670324;83;21614;-56
2021/07/06 04:00:01;;;;;;;6.47;2.50;;;;;;;29.58;43.74;98991.99;1669659;83;21151;-53
2021/07/06 04:02:27;;;;;;;3.65;2.40;;;;;;;29.57;43.74;99001.17;1670708;83;21160;-57
2021/07/06 04:04:54;;;;;;;5.20;2.20;;;;;;;29.60;43.81;99002.65;1645950;83;20997;-51
2021/07/06 04:07:20;;;;;;;4.60;2.42;;;;;;;29.68;43.74;99002.55;1669649;83;21138;-48
2021/07/06 04:09:48;;;;;;;2.60;2.35;;;;;;;29.80;43.50;99012.42;1674767;83;21920;-53
2021/07/06 04:12:15;;;;;;;4.70;2.50;;;;;;;29.88;43.29;99005.54;1684250;83;21611;-53
2021/07/06 04:14:42;;;;;;;5.22;2.30;;;;;;;29.99;43.02;99009.13;1665918;83;21029;-52
2021/07/06 04:17:08;;;;;;;4.22;2.80;;;;;;;30.12;42.95;99004.86;1681258;83;21128;-54
2021/07/06 04:19:36;;;;;;;3.30;2.22;;;;;;;30.22;42.66;99001.84;1664613;83;21904;-53
2021/07/06 04:22:03;;;;;;;7.12;2.50;;;;;;;30.31;42.54;99000.17;1682726;83;21507;-51
2021/07/06 04:24:31;;;;;;;3.90;2.40;;;;;;;30.38;42.30;99007.89;1634661;85;21069;-52
2021/07/06 04:26:58;;;;;;;8.08;2.35;;;;;;;30.46;42.07;99015.05;1647801;83;20992;-57
2021/07/06 04:29:26;;;;;;;7.83;2.95;;;;;;;30.53;42.00;99013.75;1690657;83;22341;-53
2021/07/06 04:31:53;;;;;;;3.05;2.75;;;;;;;30.60;41.99;99020.10;1686909;83;21381;-55
2021/07/06 04:34:21;;;;;;;2.95;2.30;;;;;;;30.59;41.56;99017.58;1674722;83;21586;-53
2021/07/06 04:36:49;;;;;;;3.08;2.67;;;;;;;30.52;41.66;99017.52;1671772;83;21068;-54
2021/07/06 04:39:16;;;;;;;9.50;2.58;;;;;;;30.46;41.82;99016.41;1680045;83;21124;-53
2021/07/06 04:41:45;;;;;;;4.87;2.75;;;;;;;30.43;41.87;99020.88;1660867;83;21802;-55
2021/07/06 04:44:12;;;;;;;3.45;2.30;;;;;;;30.40;41.89;99021.80;1661401;83;21157;-52
2021/07/06 04:46:40;;;;;;;3.72;2.72;;;;;;;30.34;42.07;99019.28;1666268;83;21483;-54
2021/07/06 04:49:07;;;;;;;4.53;2.85;;;;;;;30.30;41.96;99018.00;1653076;84;21077;-51
2021/07/06 04:51:35;;;;;;;4.22;2.50;;;;;;;30.13;42.19;99024.20;1641028;85;21735;-54
2021/07/06 04:54:02;;;;;;;2.67;2.40;;;;;;;29.87;42.71;99025.54;1666900;83;21531;-56
2021/07/06 04:56:28;;;;;;;2.60;2.08;;;;;;;29.76;43.04;99021.95;1615971;86;21134;-55
2021/07/06 04:58:55;;;;;;;3.50;2.15;;;;;;;29.63;43.35;99022.09;1662461;83;21022;-56
2021/07/06 05:01:22;;;;;;;2.67;2.42;;;;;;;29.57;43.60;99017.44;1651094;83;21161;-60
2021/07/06 05:03:49;;;;;;;5.20;2.33;;;;;;;29.53;43.75;99020.18;1636917;85;21076;-54
2021/07/06 05:06:20;;;;;;;2.67;2.47;;;;;;;29.49;43.89;99018.03;1676866;83;21069;-54
2021/07/06 05:08:48;;;;;;;2.75;2.55;;;;;;;29.41;44.10;99023.05;1665917;83;21104;-49
2021/07/06 05:11:16;;;;;;;5.83;2.80;;;;;;;29.33;44.33;99024.48;1656664;83;21140;-56
2021/07/06 05:13:44;;;;;;;6.95;2.47;;;;;;;29.24;44.54;99025.93;1655829;83;21057;-53
2021/07/06 05:16:11;;;;;;;4.72;2.85;;;;;;;29.18;44.72;99023.95;1667525;84;21061;-56
2021/07/06 05:18:38;;;;;;;3.17;2.87;;;;;;;29.11;44.85;99024.34;1653777;84;21022;-53
2021/07/06 05:21:07;;;;;;;5.53;2.87;;;;;;;29.02;45.05;99021.40;1652923;84;22413;-55
2021/07/06 05:23:33;;;;;;;3.22;2.45;;;;;;;28.97;45.13;99018.41;1660637;84;21047;-48
2021/07/06 05:26:01;;;;;;;3.12;2.50;;;;;;;28.95;45.20;99014.52;1642068;84;21083;-55
2021/07/06 05:28:28;;;;;;;6.03;2.70;;;;;;;28.94;45.29;99012.00;1643228;84;21067;-48
2021/07/06 05:30:56;;;;;;;3.45;2.40;;;;;;;28.95;45.27;99018.59;1654493;84;21069;-52
2021/07/06 05:33:23;;;;;;;3.70;3.00;;;;;;;28.93;45.29;99012.48;1655844;84;21846;-55
2021/07/06 05:35:49;;;;;;;4.53;3.02;;;;;;;28.92;45.33;99023.02;1659800;84;21132;-51
2021/07/06 05:38:15;;;;;;;4.65;2.85;;;;;;;28.90;45.35;99016.95;1649781;84;21059;-55
2021/07/06 05:40:43;;;;;;;4.25;2.75;;;;;;;28.86;45.38;99023.21;1652955;84;21119;-52
2021/07/06 05:43:11;;;;;;;3.33;2.30;;;;;;;28.84;45.45;99014.44;1653644;84;21093;-54
2021/07/06 05:45:38;;;;;;;10.72;3.72;;;;;;;28.84;45.50;99017.15;1652837;84;21156;-55
2021/07/06 05:48:06;;;;;;;13.75;4.90;;;;;;;28.82;45.56;99016.49;1632745;84;21647;-50
2021/07/06 05:50:33;;;;;;;7.65;4.60;;;;;;;28.80;45.65;99019.91;1650847;84;21081;-50
2021/07/06 05:52:59;;;;;;;6.62;4.15;;;;;;;28.78;45.69;99020.61;1648874;84;21049;-53
2021/07/06 05:55:26;;;;;;;7.75;4.10;;;;;;;28.75;45.76;99029.09;1637568;85;21072;-55
2021/07/06 05:57:53;;;;;;;13.28;6.15;;;;;;;28.72;45.87;99022.68;1635562;85;21136;-49
2021/07/06 06:00:19;;;;;;;4.85;4.17;;;;;;;28.70;46.06;99028.80;1652152;84;21923;-53
2021/07/06 06:02:46;;;;;;;7.85;4.25;;;;;;;28.63;46.12;99030.03;1637921;85;21119;-57
2021/07/06 06:05:14;;;;;;;8.40;5.17;;;;;;;28.48;46.47;99029.08;1647611;84;21124;-62
2021/07/06 06:07:42;;;;;;;9.48;7.10;;;;;;;28.36;46.88;99039.48;1648261;84;21074;-55
2021/07/06 06:10:11;;;;;;;12.43;5.83;;;;;;;28.28;47.22;99039.05;1634914;84;21085;-58
2021/07/06 06:12:37;;;;;;;6.03;5.00;;;;;;;28.26;47.33;99038.88;1646372;84;21130;-60
2021/07/06 06:15:07;;;;;;;12.93;4.85;;;;;;;28.24;47.39;99042.28;1657271;84;22399;-58
2021/07/06 06:17:34;;;;;;;7.42;4.72;;;;;;;28.24;47.44;99043.63;1657259;84;21021;-55
2021/07/06 06:20:01;;;;;;;7.20;4.97;;;;;;;28.25;47.56;99046.16;1654630;84;21030;-55
2021/07/06 06:22:27;;;;;;;7.25;4.20;;;;;;;28.27;47.67;99044.62;1633740;84;21098;-56
2021/07/06 06:24:54;;;;;;;6.62;3.65;;;;;;;28.25;47.70;99041.27;1654584;84;21561;-57
2021/07/06 06:27:20;;;;;;;8.98;4.22;;;;;;;28.23;48.08;99039.27;1656675;84;21018;-56
2021/07/06 06:29:47;;;;;;;6.85;3.90;;;;;;;28.15;48.26;99043.67;1635317;84;22046;-55
2021/07/06 06:32:13;;;;;;;4.50;4.00;;;;;;;28.07;48.38;99045.07;1654705;84;21037;-54
2021/07/06 06:34:40;;;;;;;8.13;3.58;;;;;;;28.03;48.64;99050.52;1654696;84;21101;-53
2021/07/06 06:37:07;;;;;;;7.22;3.80;;;;;;;27.94;48.83;99055.13;1654894;84;21038;-55
2021/07/06 06:39:33;;;;;;;3.27;2.98;;;;;;;27.92;49.02;99049.52;1654541;84;21133;-55
2021/07/06 06:42:00;;;;;;;10.72;3.92;;;;;;;27.95;49.11;99057.31;1652443;84;21026;-55
2021/07/06 06:44:26;;;;;;;7.85;3.72;;;;;;;28.00;49.17;99060.33;1633592;84;21074;-55
2021/07/06 06:46:53;;;;;;;5.67;3.40;;;;;;;28.05;49.16;99059.28;1654495;84;21131;-57
2021/07/06 06:49:19;;;;;;;5.55;3.58;;;;;;;28.09;49.30;99063.83;1635856;85;21204;-58
2021/07/06 06:51:46;;;;;;;6.97;3.25;;;;;;;28.13;49.30;99051.13;1654553;83;21587;-56
2021/07/06 06:54:13;;;;;;;4.53;3.30;;;;;;;28.19;49.27;99055.50;1653824;84;47135;-49
2021/07/06 06:56:42;;;;;;;6.58;4.10;;;;;;;28.25;49.21;99050.22;1638445;85;21073;-51
2021/07/06 06:59:08;;;;;;;6.72;4.42;;;;;;;28.31;49.08;99054.05;1639452;85;21144;-52
2021/07/06 07:01:35;;;;;;;5.05;3.55;;;;;;;28.32;48.91;99050.34;1659586;84;21030;-49
2021/07/06 07:04:01;;;;;;;8.95;3.60;;;;;;;28.32;48.89;99051.70;1654530;84;21026;-52
2021/07/06 07:06:28;;;;;;;5.62;3.67;;;;;;;28.33;48.92;99053.39;1654092;84;21053;-52
2021/07/06 07:08:56;;;;;;;7.80;3.40;;;;;;;28.36;48.87;99054.36;1654309;84;21968;-52
2021/07/06 07:11:22;;;;;;;9.80;4.03;;;;;;;28.39;48.88;99054.01;1640843;84;21984;-51
2021/07/06 07:13:49;;;;;;;7.28;3.50;;;;;;;28.42;48.88;99059.06;1645791;84;21001;-51
2021/07/06 07:16:17;;;;;;;6.50;3.47;;;;;;;28.42;48.77;99055.53;1640865;83;21061;-51
2021/07/06 07:18:44;;;;;;;6.45;3.60;;;;;;;28.42;48.71;99052.83;1662907;84;21044;-52
2021/07/06 07:21:11;;;;;;;6.53;3.40;;;;;;;28.44;48.66;99055.66;1643523;83;21061;-53
2021/07/06 07:23:38;;;;;;;5.22;4.00;;;;;;;28.48;48.63;99051.59;1662070;84;21108;-54
2021/07/06 07:26:05;;;;;;;3.60;3.30;;;;;;;28.51;48.48;99058.00;1661879;83;21081;-51
2021/07/06 07:28:31;;;;;;;4.45;3.20;;;;;;;28.53;48.48;99064.07;1661776;84;21033;-51
2021/07/06 07:30:57;;;;;;;4.70;3.40;;;;;;;28.52;48.55;99050.20;1642529;83;21644;-51
2021/07/06 07:33:24;;;;;;;8.23;3.10;;;;;;;28.54;48.54;99057.62;1662856;84;21625;-52
2021/07/06 07:35:50;;;;;;;5.28;3.75;;;;;;;28.56;48.57;99064.23;1663729;83;22018;-53
2021/07/06 07:38:16;;;;;;;6.70;3.20;;;;;;;28.59;48.65;99068.46;1662682;84;21062;-57
2021/07/06 07:40:43;;;;;;;7.30;3.12;;;;;;;28.63;48.44;99060.30;1648497;83;21017;-50
2021/07/06 07:43:09;;;;;;;11.90;3.20;;;;;;;28.67;48.36;99061.64;1662841;84;21989;-47
2021/07/06 07:45:36;;;;;;;6.62;3.35;;;;;;;28.70;48.35;99058.57;1663062;83;21224;-47
2021/07/06 07:48:03;;;;;;;8.55;3.02;;;;;;;28.75;48.35;99060.71;1661308;84;21070;-51
2021/07/06 07:50:30;;;;;;;7.78;2.72;;;;;;;28.81;48.33;99060.83;1662917;83;21081;-48
2021/07/06 07:52:57;;;;;;;4.22;3.02;;;;;;;28.90;48.27;99064.33;1662873;84;21687;-48
2021/07/06 07:55:23;;;;;;;3.12;2.70;;;;;;;28.97;48.14;99061.73;1661832;83;21066;-45
2021/07/06 07:57:50;;;;;;;5.00;3.25;;;;;;;29.03;48.03;99067.75;1662750;83;21378;-46
2021/07/06 08:00:17;;;;;;;5.28;3.27;;;;;;;29.07;47.96;99064.50;1661638;83;21101;-45
2021/07/06 08:02:44;;;;;;;6.05;3.47;;;;;;;29.08;47.86;99065.33;1669262;83;22193;-45
2021/07/06 08:05:11;;;;;;;5.15;3.17;;;;;;;29.08;47.83;99061.27;1671097;83;20893;-46
2021/07/06 08:07:37;;;;;;;4.10;3.50;;;;;;;29.07;47.83;99059.08;1670254;83;21619;-47
2021/07/06 08:10:06;;;;;;;3.95;3.15;;;;;;;29.07;47.76;99062.31;1671696;83;21041;-45
2021/07/06 08:12:33;;;;;;;4.50;2.90;;;;;;;29.06;47.78;99072.81;1668402;83;21791;-47
2021/07/06 08:15:02;;;;;;;8.73;3.00;;;;;;;29.06;47.76;99066.04;1669217;83;21060;-46
2021/07/06 08:17:29;;;;;;;7.15;2.90;;;;;;;29.08;47.81;99062.63;1668864;83;21037;-46
2021/07/06 08:19:59;;;;;;;3.55;3.22;;;;;;;29.09;47.86;99076.51;1670107;83;21025;-45
2021/07/06 08:22:26;;;;;;;4.85;3.20;;;;;;;29.10;47.92;99071.41;1670327;83;21535;-48
2021/07/06 08:24:54;;;;;;;72.15;40.83;;;;;;;29.12;47.90;99080.70;1668883;83;21104;-46
2021/07/06 08:27:20;;;;;;;26.15;13.32;;;;;;;29.10;47.93;99078.17;1669091;83;21052;-51
2021/07/06 08:29:47;;;;;;;9.95;5.08;;;;;;;29.13;47.98;99071.56;1669705;83;21069;-48
2021/07/06 08:32:14;;;;;;;10.93;3.98;;;;;;;29.15;47.70;99073.08;1669789;83;21037;-50
2021/07/06 08:34:40;;;;;;;4.72;4.25;;;;;;;29.12;47.39;99071.22;1669841;83;21676;-53
2021/07/06 08:37:07;;;;;;;4.90;3.33;;;;;;;28.89;47.52;99064.83;1669020;83;21101;-50
2021/07/06 08:39:33;;;;;;;7.35;3.42;;;;;;;28.61;48.39;99067.77;1670259;83;21078;-53
2021/07/06 08:42:00;;;;;;;12.55;3.98;;;;;;;28.39;49.27;99063.48;1670519;83;21057;-51
2021/07/06 08:44:27;;;;;;;8.13;4.05;;;;;;;28.24;49.44;99067.97;1669873;83;21484;-54
2021/07/06 08:46:54;;;;;;;6.40;3.37;;;;;;;28.12;50.27;99061.61;1670333;83;21026;-52
2021/07/06 08:49:20;;;;;;;7.58;3.70;;;;;;;28.05;50.22;99070.63;1640308;85;21530;-52
2021/07/06 08:51:53;;;;;;;9.80;3.80;;;;;;;27.98;50.87;99077.25;1668325;83;22395;-51
2021/07/06 08:54:19;;;;;;;7.70;3.90;;;;;;;28.01;50.78;99072.84;1667901;83;21064;-54
2021/07/06 08:56:45;;;;;;;39.78;5.28;;;;;;;28.06;51.04;99081.27;1669239;83;21013;-52
2021/07/06 08:59:12;;;;;;;20.95;4.08;;;;;;;28.09;51.06;99077.34;1669301;83;21621;-52
2021/07/06 09:01:39;;;;;;;13.32;4.10;;;;;;;28.15;50.59;99076.13;1669360;83;22149;-53
2021/07/06 09:04:06;;;;;;;13.45;3.90;;;;;;;28.21;49.90;99077.80;1669376;83;20986;-53
2021/07/06 09:06:42;;;;;;;9.98;3.42;;;;;;;28.16;49.90;99076.48;1668814;83;21068;-55
2021/07/06 09:09:18;;;;;;;7.47;3.67;;;;;;;28.15;49.41;99078.84;1664370;83;22016;-52
2021/07/06 09:11:51;;;;;;;7.62;3.70;;;;;;;28.06;49.78;99074.50;1669262;83;21698;-52
2021/07/06 09:14:21;;;;;;;5.33;3.37;;;;;;;27.96;49.12;99073.88;1669981;83;22127;-52
2021/07/06 09:16:48;;;;;;;3.37;3.08;;;;;;;27.88;49.58;99078.77;1669469;83;21122;-53
2021/07/06 09:19:22;;;;;;;4.10;3.12;;;;;;;27.89;50.21;99075.55;1669143;83;21054;-54
2021/07/06 09:22:14;;;;;;;4.45;3.40;;;;;;;27.95;50.54;99073.02;1670246;83;21195;-54
2021/07/06 09:24:43;;;;;;;9.10;3.22;;;;;;;28.03;50.12;99071.31;1668507;83;21010;-54
2021/07/06 09:27:26;;;;;;;6.58;3.42;;;;;;;28.11;49.89;99073.47;1668987;83;21146;-52
2021/07/06 09:30:15;;;;;;;4.95;3.20;;;;;;;28.14;49.54;99066.35;1640215;85;21096;-52
2021/07/06 09:32:54;;;;;;;3.05;2.75;;;;;;;28.12;49.68;99069.72;1669862;83;21085;-53
2021/07/06 09:35:25;;;;;;;3.95;3.15;;;;;;;28.11;49.70;99077.52;1669700;83;20997;-52
2021/07/06 09:38:01;;;;;;;8.05;3.55;;;;;;;28.13;49.58;99074.13;1669260;83;21921;-51
2021/07/06 09:40:37;;;;;;;8.15;3.95;;;;;;;28.16;49.42;99083.23;1664041;84;21054;-50
2021/07/06 09:43:30;;;;;;;10.45;3.80;;;;;;;28.19;49.26;99077.97;1669122;83;21041;-51
2021/07/06 09:46:10;;;;;;;7.35;3.45;;;;;;;28.21;48.28;99077.80;1641017;83;21065;-51
2021/07/06 09:48:43;;;;;;;9.83;3.33;;;;;;;28.14;48.90;99070.41;1670552;83;21057;-52
2021/07/06 09:51:21;;;;;;;3.70;3.40;;;;;;;28.23;49.12;99079.31;1669037;83;21009;-53
2021/07/06 09:53:50;;;;;;;3.47;3.17;;;;;;;28.31;49.11;99072.51;1643291;84;21222;-53
2021/07/06 09:56:22;;;;;;;5.22;2.87;;;;;;;28.42;48.86;99085.30;1647359;85;21979;-53
2021/07/06 09:58:52;;;;;;;10.53;2.95;;;;;;;28.47;48.04;99082.38;1664675;84;22114;-52
2021/07/06 10:01:18;;;;;;;7.55;3.20;;;;;;;28.46;47.72;99086.60;1657938;83;21580;-53
2021/07/06 10:03:45;;;;;;;4.83;2.77;;;;;;;28.44;47.60;99091.36;1641297;83;21085;-51
2021/07/06 10:06:11;;;;;;;7.65;2.90;;;;;;;28.42;47.50;99087.48;1646365;85;21122;-57
2021/07/06 10:08:41;;;;;;;7.05;2.58;;;;;;;28.44;47.78;99092.19;1669296;83;21033;-55
2021/07/06 10:11:08;;;;;;;2.92;2.70;;;;;;;28.53;47.52;99088.43;1646642;85;21061;-54
2021/07/06 10:13:37;;;;;;;12.43;3.17;;;;;;;28.64;47.79;99083.65;1670460;83;21029;-55
2021/07/06 10:16:04;;;;;;;3.05;2.42;;;;;;;28.77;47.73;99083.05;1668351;83;21057;-53
2021/07/06 10:18:34;;;;;;;3.60;2.22;;;;;;;28.87;47.36;99078.23;1642305;83;21002;-57
2021/07/06 10:21:01;;;;;;;4.58;2.62;;;;;;;28.98;46.71;99096.73;1668744;83;21037;-55
2021/07/06 10:23:28;;;;;;;7.15;2.85;;;;;;;29.06;46.13;99089.06;1669868;83;21384;-54
2021/07/06 10:25:57;;;;;;;6.28;2.60;;;;;;;29.10;46.17;99086.30;1669037;83;21026;-57
2021/07/06 10:28:27;;;;;;;6.75;2.92;;;;;;;29.16;46.34;99095.58;1670016;83;21107;-60
2021/07/06 10:30:53;;;;;;;2.87;2.65;;;;;;;29.20;46.20;99081.52;1670229;83;21108;-57
2021/07/06 10:33:32;;;;;;;10.20;2.50;;;;;;;29.25;45.87;99087.23;1669898;83;21017;-55
2021/07/06 10:36:00;;;;;;;3.33;2.75;;;;;;;29.28;45.50;99089.55;1670487;83;21018;-53
2021/07/06 10:38:39;;;;;;;7.53;2.87;;;;;;;29.28;45.65;99088.19;1638905;83;21021;-57
2021/07/06 10:41:12;;;;;;;4.72;3.00;;;;;;;29.30;45.95;99084.47;1668400;83;21085;-59
2021/07/06 10:43:47;;;;;;;7.92;2.80;;;;;;;29.35;46.11;99092.36;1640983;83;22092;-59
2021/07/06 10:46:29;;;;;;;6.40;2.83;;;;;;;29.40;46.07;99095.88;1640780;83;21033;-60
2021/07/06 10:49:07;;;;;;;10.20;3.12;;;;;;;29.41;46.07;99088.92;1669791;83;21069;-63
2021/07/06 10:51:39;;;;;;;7.70;3.08;;;;;;;29.44;46.06;99093.14;1656356;83;21123;-59
2021/07/06 10:54:26;;;;;;;9.58;3.12;;;;;;;29.46;46.02;99096.50;1643594;83;21089;-55
2021/07/06 10:57:13;;;;;;;8.80;2.87;;;;;;;29.49;45.96;99093.42;1668083;83;21121;-58
2021/07/06 10:59:40;;;;;;;8.33;2.83;;;;;;;29.50;44.54;99088.83;1669473;83;21037;-61
2021/07/06 11:02:25;;;;;;;3.65;2.67;;;;;;;29.41;41.98;99093.50;1670657;83;21005;-56
2021/07/06 11:04:56;;;;;;;8.73;3.02;;;;;;;29.24;42.90;99093.66;1639840;83;21037;-55
2021/07/06 11:07:42;;;;;;;2.92;2.52;;;;;;;29.09;41.77;99100.37;1669509;83;21146;-58
2021/07/06 11:10:09;;;;;;;12.73;3.35;;;;;;;28.97;40.91;99093.71;1640550;85;21617;-59
2021/07/06 11:12:42;;;;;;;10.50;2.85;;;;;;;28.84;38.82;99100.25;1640173;83;21033;-59
2021/07/06 11:15:22;;;;;;;4.72;2.58;;;;;;;28.68;37.37;99102.06;1676866;83;21053;-54
2021/07/06 11:17:51;;;;;;;2.87;2.20;;;;;;;28.51;36.17;99103.14;1665984;83;21774;-55
2021/07/06 11:20:34;;;;;;;4.80;2.37;;;;;;;28.33;34.88;99111.56;1635269;84;21983;-60
2021/07/06 11:23:01;;;;;;;3.27;2.30;;;;;;;28.16;34.24;99114.86;1654030;84;21180;-58
2021/07/06 11:25:37;;;;;;;6.42;2.52;;;;;;;27.97;33.72;99112.92;1648195;85;21084;-57
2021/07/06 11:28:25;;;;;;;14.28;2.52;;;;;;;27.83;33.54;99112.77;1654138;84;21062;-57
2021/07/06 11:30:53;;;;;;;12.00;2.27;;;;;;;27.73;36.08;99108.39;1644538;84;21070;-56
2021/07/06 11:33:27;;;;;;;3.67;2.50;;;;;;;27.74;36.83;99113.28;1654711;84;21014;-57
2021/07/06 11:36:05;;;;;;;5.08;2.55;;;;;;;27.84;38.21;99102.27;1656069;84;21113;-52
2021/07/06 11:38:44;;;;;;;7.65;2.50;;;;;;;28.02;41.63;99107.48;1653802;84;21054;-55